sensor_id;sensor_type;location;lat;lon;timestamp;temperature;humidity
52451;DHT22;38366;53.176;6.540;2022-12-31T00:00:57;11.70;99.90
52451;DHT22;38366;53.176;6.540;2022-12-31T00:03:23;11.60;99.90
52451;DHT22;38366;53.176;6.540;2022-12-31T00:05:48;11.60;99.90
52451;DHT22;38366;53.176;6.540;2022-12-31T00:08:14;11.60;99.90
52451;DHT22;38366;53.176;6.540;2022-12-31T00:10:39;11.60;99.90
52451;DHT22;38366;53.176;6.540;2022-12-31T00:13:08;11.60;99.90
52451;DHT22;38366;53.176;6.540;2022-12-31T00:15:34;11.60;99.90
52451;DHT22;38366;53.176;6.540;2022-12-31T00:18:00;11.60;99.90
52451;DHT22;38366;53.176;6.540;2022-12-31T00:20:26;11.60;99.90
52451;DHT22;38366;53.176;6.540;2022-12-31T00:22:51;11.60;99.90
52451;DHT22;38366;53.176;6.540;2022-12-31T00:25:17;11.60;99.90
52451;DHT22;38366;53.176;6.540;2022-12-31T00:27:42;11.60;99.90
52451;DHT22;38366;53.176;6.540;2022-12-31T00:30:08;11.60;99.90
52451;DHT22;38366;53.176;6.540;2022-12-31T00:32:34;11.60;99.90
52451;DHT22;38366;53.176;6.540;2022-12-31T00:35:00;11.60;99.90
52451;DHT22;38366;53.176;6.540;2022-12-31T00:37:25;11.50;99.90
52451;DHT22;38366;53.176;6.540;2022-12-31T00:39:51;11.60;99.90
52451;DHT22;38366;53.176;6.540;2022-12-31T00:42:17;11.50;99.90
52451;DHT22;38366;53.176;6.540;2022-12-31T00:44:42;11.50;99.90
52451;DHT22;38366;53.176;6.540;2022-12-31T00:47:08;11.60;99.90
52451;DHT22;38366;53.176;6.540;2022-12-31T00:49:34;11.60;99.90
52451;DHT22;38366;53.176;6.540;2022-12-31T00:51:59;11.60;99.90
52451;DHT22;38366;53.176;6.540;2022-12-31T00:54:25;11.50;99.90
52451;DHT22;38366;53.176;6.540;2022-12-31T00:56:51;11.50;99.90
52451;DHT22;38366;53.176;6.540;2022-12-31T00:59:16;11.50;99.90
52451;DHT22;38366;53.176;6.540;2022-12-31T01:01:42;11.60;99.90
52451;DHT22;38366;53.176;6.540;2022-12-31T01:04:11;11.60;99.90
52451;DHT22;38366;53.176;6.540;2022-12-31T01:06:37;11.60;99.90
52451;DHT22;38366;53.176;6.540;2022-12-31T01:09:03;11.50;99.90
52451;DHT22;38366;53.176;6.540;2022-12-31T01:11:28;11.50;99.90
52451;DHT22;38366;53.176;6.540;2022-12-31T01:13:58;11.50;99.90
52451;DHT22;38366;53.176;6.540;2022-12-31T01:16:25;11.50;99.90
52451;DHT22;38366;53.176;6.540;2022-12-31T01:18:51;11.40;99.90
52451;DHT22;38366;53.176;6.540;2022-12-31T01:21:17;11.50;99.90
52451;DHT22;38366;53.176;6.540;2022-12-31T01:23:43;11.40;99.90
52451;DHT22;38366;53.176;6.540;2022-12-31T01:26:10;11.40;99.90
52451;DHT22;38366;53.176;6.540;2022-12-31T01:28:36;11.40;99.90
52451;DHT22;38366;53.176;6.540;2022-12-31T01:31:06;11.40;99.90
52451;DHT22;38366;53.176;6.540;2022-12-31T01:33:32;11.50;99.90
52451;DHT22;38366;53.176;6.540;2022-12-31T01:36:05;11.50;99.90
52451;DHT22;38366;53.176;6.540;2022-12-31T01:38:32;11.50;99.90
52451;DHT22;38366;53.176;6.540;2022-12-31T01:40:58;11.40;99.90
52451;DHT22;38366;53.176;6.540;2022-12-31T01:43:23;11.40;99.90
52451;DHT22;38366;53.176;6.540;2022-12-31T01:45:49;11.50;99.90
52451;DHT22;38366;53.176;6.540;2022-12-31T01:48:18;11.50;99.90
52451;DHT22;38366;53.176;6.540;2022-12-31T01:50:45;11.50;99.90
52451;DHT22;38366;53.176;6.540;2022-12-31T01:53:11;11.50;99.90
52451;DHT22;38366;53.176;6.540;2022-12-31T01:55:38;11.40;99.90
52451;DHT22;38366;53.176;6.540;2022-12-31T01:58:13;11.40;99.90
52451;DHT22;38366;53.176;6.540;2022-12-31T02:00:40;11.40;99.90
52451;DHT22;38366;53.176;6.540;2022-12-31T02:03:06;11.40;99.90
52451;DHT22;38366;53.176;6.540;2022-12-31T02:05:50;11.40;99.90
52451;DHT22;38366;53.176;6.540;2022-12-31T02:08:16;11.50;99.90
52451;DHT22;38366;53.176;6.540;2022-12-31T02:10:41;11.60;99.90
52451;DHT22;38366;53.176;6.540;2022-12-31T02:13:07;11.60;99.90
52451;DHT22;38366;53.176;6.540;2022-12-31T02:20:31;11.60;99.90
52451;DHT22;38366;53.176;6.540;2022-12-31T02:31:04;11.60;99.90
52451;DHT22;38366;53.176;6.540;2022-12-31T02:33:34;11.60;99.90
52451;DHT22;38366;53.176;6.540;2022-12-31T02:36:02;11.60;99.90
52451;DHT22;38366;53.176;6.540;2022-12-31T02:38:33;11.60;99.90
52451;DHT22;38366;53.176;6.540;2022-12-31T02:40:59;11.60;99.90
52451;DHT22;38366;53.176;6.540;2022-12-31T02:43:25;11.60;99.90
52451;DHT22;38366;53.176;6.540;2022-12-31T02:48:48;11.60;99.90
52451;DHT22;38366;53.176;6.540;2022-12-31T02:51:16;11.60;99.90
52451;DHT22;38366;53.176;6.540;2022-12-31T02:56:18;11.60;99.90
52451;DHT22;38366;53.176;6.540;2022-12-31T02:59:00;11.50;99.90
52451;DHT22;38366;53.176;6.540;2022-12-31T03:01:47;11.50;99.90
52451;DHT22;38366;53.176;6.540;2022-12-31T03:04:33;11.50;99.90
52451;DHT22;38366;53.176;6.540;2022-12-31T03:07:10;11.50;99.90
52451;DHT22;38366;53.176;6.540;2022-12-31T03:09:37;11.50;99.90
52451;DHT22;38366;53.176;6.540;2022-12-31T03:12:03;11.40;99.90
52451;DHT22;38366;53.176;6.540;2022-12-31T03:14:47;11.40;99.90
52451;DHT22;38366;53.176;6.540;2022-12-31T03:17:13;11.40;99.90
52451;DHT22;38366;53.176;6.540;2022-12-31T03:19:39;11.30;99.90
52451;DHT22;38366;53.176;6.540;2022-12-31T03:22:23;11.30;99.90
52451;DHT22;38366;53.176;6.540;2022-12-31T03:24:59;11.30;99.90
52451;DHT22;38366;53.176;6.540;2022-12-31T03:27:44;11.30;99.90
52451;DHT22;38366;53.176;6.540;2022-12-31T03:30:10;11.40;99.90
52451;DHT22;38366;53.176;6.540;2022-12-31T03:32:36;11.40;99.90
52451;DHT22;38366;53.176;6.540;2022-12-31T03:35:02;11.30;99.90
52451;DHT22;38366;53.176;6.540;2022-12-31T03:37:27;11.30;99.90
52451;DHT22;38366;53.176;6.540;2022-12-31T03:39:53;11.30;99.90
52451;DHT22;38366;53.176;6.540;2022-12-31T03:42:19;11.30;99.90
52451;DHT22;38366;53.176;6.540;2022-12-31T03:44:44;11.30;99.90
52451;DHT22;38366;53.176;6.540;2022-12-31T03:47:10;11.20;99.90
52451;DHT22;38366;53.176;6.540;2022-12-31T03:49:35;11.20;99.90
52451;DHT22;38366;53.176;6.540;2022-12-31T03:52:01;11.10;99.90
52451;DHT22;38366;53.176;6.540;2022-12-31T03:54:27;11.00;99.90
52451;DHT22;38366;53.176;6.540;2022-12-31T03:56:53;11.00;99.90
52451;DHT22;38366;53.176;6.540;2022-12-31T03:59:19;11.00;99.90
52451;DHT22;38366;53.176;6.540;2022-12-31T04:01:44;11.00;99.90
52451;DHT22;38366;53.176;6.540;2022-12-31T04:04:10;11.00;99.90
52451;DHT22;38366;53.176;6.540;2022-12-31T04:06:35;11.00;99.90
52451;DHT22;38366;53.176;6.540;2022-12-31T04:09:01;11.00;99.90
52451;DHT22;38366;53.176;6.540;2022-12-31T04:11:26;11.00;99.90
52451;DHT22;38366;53.176;6.540;2022-12-31T04:13:52;11.00;99.90
52451;DHT22;38366;53.176;6.540;2022-12-31T04:16:18;11.10;99.90
52451;DHT22;38366;53.176;6.540;2022-12-31T04:18:43;11.10;99.90
52451;DHT22;38366;53.176;6.540;2022-12-31T04:21:09;11.10;99.90
52451;DHT22;38366;53.176;6.540;2022-12-31T04:23:34;11.10;99.90
52451;DHT22;38366;53.176;6.540;2022-12-31T04:26:00;11.20;99.90
52451;DHT22;38366;53.176;6.540;2022-12-31T04:28:26;11.20;99.90
52451;DHT22;38366;53.176;6.540;2022-12-31T04:30:51;11.20;99.90
52451;DHT22;38366;53.176;6.540;2022-12-31T04:33:17;11.10;99.90
52451;DHT22;38366;53.176;6.540;2022-12-31T04:35:42;11.10;99.90
52451;DHT22;38366;53.176;6.540;2022-12-31T04:38:08;11.10;99.90
52451;DHT22;38366;53.176;6.540;2022-12-31T04:40:34;11.20;99.90
52451;DHT22;38366;53.176;6.540;2022-12-31T04:42:59;11.20;99.90
52451;DHT22;38366;53.176;6.540;2022-12-31T04:45:25;11.20;99.90
52451;DHT22;38366;53.176;6.540;2022-12-31T04:47:51;11.10;99.90
52451;DHT22;38366;53.176;6.540;2022-12-31T04:50:16;11.10;99.90
52451;DHT22;38366;53.176;6.540;2022-12-31T04:52:42;11.10;99.90
52451;DHT22;38366;53.176;6.540;2022-12-31T04:55:07;11.00;99.90
52451;DHT22;38366;53.176;6.540;2022-12-31T04:57:33;11.00;99.90
52451;DHT22;38366;53.176;6.540;2022-12-31T04:59:58;11.00;99.90
52451;DHT22;38366;53.176;6.540;2022-12-31T05:02:24;11.00;99.90
52451;DHT22;38366;53.176;6.540;2022-12-31T05:04:49;11.00;99.90
52451;DHT22;38366;53.176;6.540;2022-12-31T05:07:15;10.90;99.90
52451;DHT22;38366;53.176;6.540;2022-12-31T05:09:41;11.00;99.90
52451;DHT22;38366;53.176;6.540;2022-12-31T05:12:06;11.00;99.90
52451;DHT22;38366;53.176;6.540;2022-12-31T05:14:32;11.00;99.90
52451;DHT22;38366;53.176;6.540;2022-12-31T05:16:57;11.00;99.90
52451;DHT22;38366;53.176;6.540;2022-12-31T05:19:23;11.00;99.90
52451;DHT22;38366;53.176;6.540;2022-12-31T05:21:49;11.00;99.90
52451;DHT22;38366;53.176;6.540;2022-12-31T05:24:34;10.90;99.90
52451;DHT22;38366;53.176;6.540;2022-12-31T05:27:00;10.90;99.90
52451;DHT22;38366;53.176;6.540;2022-12-31T05:29:26;10.80;99.90
52451;DHT22;38366;53.176;6.540;2022-12-31T05:31:51;10.80;99.90
52451;DHT22;38366;53.176;6.540;2022-12-31T05:34:17;10.80;99.90
52451;DHT22;38366;53.176;6.540;2022-12-31T05:36:43;10.80;99.90
52451;DHT22;38366;53.176;6.540;2022-12-31T05:39:08;10.80;99.90
52451;DHT22;38366;53.176;6.540;2022-12-31T05:41:34;10.80;99.90
52451;DHT22;38366;53.176;6.540;2022-12-31T05:43:59;10.80;99.90
52451;DHT22;38366;53.176;6.540;2022-12-31T05:46:25;10.80;99.90
52451;DHT22;38366;53.176;6.540;2022-12-31T05:48:50;10.90;99.90
52451;DHT22;38366;53.176;6.540;2022-12-31T05:51:16;10.90;99.90
52451;DHT22;38366;53.176;6.540;2022-12-31T05:53:41;10.90;99.90
52451;DHT22;38366;53.176;6.540;2022-12-31T05:56:07;11.00;99.90
52451;DHT22;38366;53.176;6.540;2022-12-31T05:58:33;10.90;99.90
52451;DHT22;38366;53.176;6.540;2022-12-31T06:00:58;10.90;99.90
52451;DHT22;38366;53.176;6.540;2022-12-31T06:03:24;10.90;99.90
52451;DHT22;38366;53.176;6.540;2022-12-31T06:05:49;11.00;99.90
52451;DHT22;38366;53.176;6.540;2022-12-31T06:08:15;10.90;99.90
52451;DHT22;38366;53.176;6.540;2022-12-31T06:10:40;10.90;99.90
52451;DHT22;38366;53.176;6.540;2022-12-31T06:13:06;10.80;99.90
52451;DHT22;38366;53.176;6.540;2022-12-31T06:15:35;10.80;99.90
52451;DHT22;38366;53.176;6.540;2022-12-31T06:18:00;10.80;99.90
52451;DHT22;38366;53.176;6.540;2022-12-31T06:20:26;10.80;99.90
52451;DHT22;38366;53.176;6.540;2022-12-31T06:22:52;10.70;99.90
52451;DHT22;38366;53.176;6.540;2022-12-31T06:25:17;10.60;99.90
52451;DHT22;38366;53.176;6.540;2022-12-31T06:27:43;10.60;99.90
52451;DHT22;38366;53.176;6.540;2022-12-31T06:30:09;10.50;99.90
52451;DHT22;38366;53.176;6.540;2022-12-31T06:32:34;10.50;99.90
52451;DHT22;38366;53.176;6.540;2022-12-31T06:35:00;10.40;99.90
52451;DHT22;38366;53.176;6.540;2022-12-31T06:37:26;10.40;99.90
52451;DHT22;38366;53.176;6.540;2022-12-31T06:39:51;10.30;99.90
52451;DHT22;38366;53.176;6.540;2022-12-31T06:42:17;10.30;99.90
52451;DHT22;38366;53.176;6.540;2022-12-31T06:44:42;10.10;99.90
52451;DHT22;38366;53.176;6.540;2022-12-31T06:47:08;10.30;99.90
52451;DHT22;38366;53.176;6.540;2022-12-31T06:49:33;10.20;99.90
52451;DHT22;38366;53.176;6.540;2022-12-31T06:51:59;10.20;99.90
52451;DHT22;38366;53.176;6.540;2022-12-31T06:54:25;10.20;99.90
52451;DHT22;38366;53.176;6.540;2022-12-31T06:56:50;10.20;99.90
52451;DHT22;38366;53.176;6.540;2022-12-31T06:59:23;10.20;99.90
52451;DHT22;38366;53.176;6.540;2022-12-31T07:04:38;10.40;99.90
52451;DHT22;38366;53.176;6.540;2022-12-31T07:09:50;10.50;99.90
52451;DHT22;38366;53.176;6.540;2022-12-31T07:15:05;10.50;99.90
52451;DHT22;38366;53.176;6.540;2022-12-31T07:20:17;10.60;99.90
52451;DHT22;38366;53.176;6.540;2022-12-31T07:22:43;10.60;99.90
52451;DHT22;38366;53.176;6.540;2022-12-31T07:25:13;10.70;99.90
52451;DHT22;38366;53.176;6.540;2022-12-31T07:30:20;10.50;99.90
52451;DHT22;38366;53.176;6.540;2022-12-31T07:40:44;10.50;99.90
52451;DHT22;38366;53.176;6.540;2022-12-31T07:48:41;10.60;99.90
52451;DHT22;38366;53.176;6.540;2022-12-31T07:51:10;10.50;99.90
52451;DHT22;38366;53.176;6.540;2022-12-31T07:53:36;10.50;99.90
52451;DHT22;38366;53.176;6.540;2022-12-31T07:56:02;10.50;99.90
52451;DHT22;38366;53.176;6.540;2022-12-31T08:01:03;10.50;99.90
52451;DHT22;38366;53.176;6.540;2022-12-31T08:08:35;10.50;99.90
52451;DHT22;38366;53.176;6.540;2022-12-31T08:13:47;10.50;99.90
52451;DHT22;38366;53.176;6.540;2022-12-31T08:16:13;10.40;99.90
52451;DHT22;38366;53.176;6.540;2022-12-31T08:18:39;10.40;99.90
52451;DHT22;38366;53.176;6.540;2022-12-31T08:21:12;10.40;99.90
52451;DHT22;38366;53.176;6.540;2022-12-31T08:26:27;10.40;99.90
52451;DHT22;38366;53.176;6.540;2022-12-31T08:29:04;10.40;99.90
52451;DHT22;38366;53.176;6.540;2022-12-31T08:31:35;10.40;99.90
52451;DHT22;38366;53.176;6.540;2022-12-31T08:34:13;10.50;99.90
52451;DHT22;38366;53.176;6.540;2022-12-31T08:36:52;9.20;99.90
52451;DHT22;38366;53.176;6.540;2022-12-31T08:39:32;10.50;99.90
52451;DHT22;38366;53.176;6.540;2022-12-31T08:42:00;10.60;99.90
52451;DHT22;38366;53.176;6.540;2022-12-31T08:49:32;10.90;99.90
52451;DHT22;38366;53.176;6.540;2022-12-31T08:51:58;10.90;99.90
52451;DHT22;38366;53.176;6.540;2022-12-31T08:54:24;10.90;99.90
52451;DHT22;38366;53.176;6.540;2022-12-31T09:02:06;11.20;99.90
52451;DHT22;38366;53.176;6.540;2022-12-31T09:07:06;11.50;99.90
52451;DHT22;38366;53.176;6.540;2022-12-31T09:09:47;11.60;99.90
52451;DHT22;38366;53.176;6.540;2022-12-31T09:13:04;11.60;99.90
52451;DHT22;38366;53.176;6.540;2022-12-31T09:15:05;11.70;99.90
52451;DHT22;38366;53.176;6.540;2022-12-31T09:17:48;11.80;99.90
52451;DHT22;38366;53.176;6.540;2022-12-31T09:20:35;11.90;99.90
52451;DHT22;38366;53.176;6.540;2022-12-31T09:23:01;11.90;99.90
52451;DHT22;38366;53.176;6.540;2022-12-31T09:25:27;12.00;99.90
52451;DHT22;38366;53.176;6.540;2022-12-31T09:30:25;12.00;99.90
52451;DHT22;38366;53.176;6.540;2022-12-31T09:35:57;12.10;99.90
52451;DHT22;38366;53.176;6.540;2022-12-31T09:48:51;12.40;99.90
52451;DHT22;38366;53.176;6.540;2022-12-31T09:51:29;12.40;99.90
52451;DHT22;38366;53.176;6.540;2022-12-31T09:54:01;12.40;99.90
52451;DHT22;38366;53.176;6.540;2022-12-31T09:56:34;12.40;99.90
52451;DHT22;38366;53.176;6.540;2022-12-31T09:59:02;12.40;99.90
52451;DHT22;38366;53.176;6.540;2022-12-31T10:01:33;12.40;99.90
52451;DHT22;38366;53.176;6.540;2022-12-31T10:11:42;12.60;99.90
52451;DHT22;38366;53.176;6.540;2022-12-31T10:14:32;12.60;99.90
52451;DHT22;38366;53.176;6.540;2022-12-31T10:24:40;12.80;99.90
52451;DHT22;38366;53.176;6.540;2022-12-31T10:27:18;12.90;99.90
52451;DHT22;38366;53.176;6.540;2022-12-31T10:30:10;13.00;99.90
52451;DHT22;38366;53.176;6.540;2022-12-31T10:35:09;12.90;99.90
52451;DHT22;38366;53.176;6.540;2022-12-31T10:40:23;13.10;99.90
52451;DHT22;38366;53.176;6.540;2022-12-31T11:37:27;13.40;99.90
52451;DHT22;38366;53.176;6.540;2022-12-31T11:58:50;13.40;99.90
52451;DHT22;38366;53.176;6.540;2022-12-31T12:04:09;13.50;99.90
52451;DHT22;38366;53.176;6.540;2022-12-31T12:06:35;13.60;99.90
52451;DHT22;38366;53.176;6.540;2022-12-31T12:09:14;13.60;99.90
52451;DHT22;38366;53.176;6.540;2022-12-31T12:11:41;13.50;99.90
52451;DHT22;38366;53.176;6.540;2022-12-31T12:14:30;13.60;99.90
52451;DHT22;38366;53.176;6.540;2022-12-31T12:16:57;13.50;99.90
52451;DHT22;38366;53.176;6.540;2022-12-31T12:19:26;13.50;99.90
52451;DHT22;38366;53.176;6.540;2022-12-31T12:21:54;13.50;99.90
52451;DHT22;38366;53.176;6.540;2022-12-31T12:24:28;13.50;99.90
52451;DHT22;38366;53.176;6.540;2022-12-31T12:26:56;13.50;99.90
52451;DHT22;38366;53.176;6.540;2022-12-31T12:29:42;13.40;99.90
52451;DHT22;38366;53.176;6.540;2022-12-31T12:32:20;13.50;99.90
52451;DHT22;38366;53.176;6.540;2022-12-31T12:34:46;12.40;99.90
52451;DHT22;38366;53.176;6.540;2022-12-31T12:37:29;13.50;99.90
52451;DHT22;38366;53.176;6.540;2022-12-31T12:40:06;13.40;99.90
52451;DHT22;38366;53.176;6.540;2022-12-31T12:42:50;13.40;99.90
52451;DHT22;38366;53.176;6.540;2022-12-31T12:45:22;13.40;99.90
52451;DHT22;38366;53.176;6.540;2022-12-31T12:48:00;13.50;99.90
52451;DHT22;38366;53.176;6.540;2022-12-31T12:50:35;13.50;99.90
52451;DHT22;38366;53.176;6.540;2022-12-31T12:56:29;13.40;99.90
52451;DHT22;38366;53.176;6.540;2022-12-31T13:02:10;13.50;99.90
52451;DHT22;38366;53.176;6.540;2022-12-31T13:05:07;13.50;99.90
52451;DHT22;38366;53.176;6.540;2022-12-31T13:16:07;13.40;99.90
52451;DHT22;38366;53.176;6.540;2022-12-31T13:24:28;13.40;99.90
52451;DHT22;38366;53.176;6.540;2022-12-31T13:29:55;13.20;99.90
52451;DHT22;38366;53.176;6.540;2022-12-31T13:32:38;12.80;99.90
52451;DHT22;38366;53.176;6.540;2022-12-31T13:35:23;13.20;99.90
52451;DHT22;38366;53.176;6.540;2022-12-31T13:37:54;13.10;99.90
52451;DHT22;38366;53.176;6.540;2022-12-31T13:40:45;13.00;99.90
52451;DHT22;38366;53.176;6.540;2022-12-31T13:43:22;13.00;99.90
52451;DHT22;38366;53.176;6.540;2022-12-31T13:46:00;12.90;99.90
52451;DHT22;38366;53.176;6.540;2022-12-31T13:48:35;12.80;99.90
52451;DHT22;38366;53.176;6.540;2022-12-31T13:51:41;12.70;99.90
52451;DHT22;38366;53.176;6.540;2022-12-31T13:57:03;12.60;99.90
52451;DHT22;38366;53.176;6.540;2022-12-31T13:59:39;12.60;99.90
52451;DHT22;38366;53.176;6.540;2022-12-31T14:04:53;12.50;99.90
52451;DHT22;38366;53.176;6.540;2022-12-31T14:07:27;12.50;99.90
52451;DHT22;38366;53.176;6.540;2022-12-31T14:09:54;12.40;99.90
52451;DHT22;38366;53.176;6.540;2022-12-31T14:12:38;12.40;99.90
52451;DHT22;38366;53.176;6.540;2022-12-31T14:15:22;12.50;99.90
52451;DHT22;38366;53.176;6.540;2022-12-31T14:18:35;12.40;99.90
52451;DHT22;38366;53.176;6.540;2022-12-31T14:20:51;12.50;99.90
52451;DHT22;38366;53.176;6.540;2022-12-31T14:26:31;12.50;99.90
52451;DHT22;38366;53.176;6.540;2022-12-31T14:34:36;12.40;99.90
52451;DHT22;38366;53.176;6.540;2022-12-31T14:37:16;12.50;99.90
52451;DHT22;38366;53.176;6.540;2022-12-31T14:42:51;12.50;99.90
52451;DHT22;38366;53.176;6.540;2022-12-31T14:50:54;12.50;99.90
52451;DHT22;38366;53.176;6.540;2022-12-31T14:53:25;12.50;99.90
52451;DHT22;38366;53.176;6.540;2022-12-31T14:56:00;12.50;99.90
52451;DHT22;38366;53.176;6.540;2022-12-31T14:58:35;12.50;99.90
52451;DHT22;38366;53.176;6.540;2022-12-31T15:01:06;12.40;99.90
52451;DHT22;38366;53.176;6.540;2022-12-31T15:03:44;12.40;99.90
52451;DHT22;38366;53.176;6.540;2022-12-31T15:19:41;12.20;99.90
52451;DHT22;38366;53.176;6.540;2022-12-31T15:22:44;12.20;99.90
52451;DHT22;38366;53.176;6.540;2022-12-31T15:27:45;12.10;99.90
52451;DHT22;38366;53.176;6.540;2022-12-31T15:32:59;12.10;99.90
52451;DHT22;38366;53.176;6.540;2022-12-31T15:35:29;12.10;99.90
52451;DHT22;38366;53.176;6.540;2022-12-31T15:38:27;12.10;99.90
52451;DHT22;38366;53.176;6.540;2022-12-31T15:40:54;12.10;99.90
52451;DHT22;38366;53.176;6.540;2022-12-31T15:45:50;12.10;99.90
52451;DHT22;38366;53.176;6.540;2022-12-31T15:48:20;12.10;99.90
52451;DHT22;38366;53.176;6.540;2022-12-31T15:50:50;12.00;99.90
52451;DHT22;38366;53.176;6.540;2022-12-31T15:53:27;12.10;99.90
52451;DHT22;38366;53.176;6.540;2022-12-31T15:55:55;12.10;99.90
52451;DHT22;38366;53.176;6.540;2022-12-31T15:58:25;12.10;99.90
52451;DHT22;38366;53.176;6.540;2022-12-31T16:03:29;12.20;99.90
52451;DHT22;38366;53.176;6.540;2022-12-31T16:06:00;12.20;99.90
52451;DHT22;38366;53.176;6.540;2022-12-31T16:08:46;12.30;99.90
52451;DHT22;38366;53.176;6.540;2022-12-31T16:11:12;12.30;99.90
52451;DHT22;38366;53.176;6.540;2022-12-31T16:13:41;12.40;99.90
52451;DHT22;38366;53.176;6.540;2022-12-31T16:16:23;12.30;99.90
52451;DHT22;38366;53.176;6.540;2022-12-31T16:18:50;12.40;99.90
52451;DHT22;38366;53.176;6.540;2022-12-31T16:21:36;12.40;99.90
52451;DHT22;38366;53.176;6.540;2022-12-31T16:24:27;12.40;99.90
52451;DHT22;38366;53.176;6.540;2022-12-31T16:26:56;12.40;99.90
52451;DHT22;38366;53.176;6.540;2022-12-31T16:29:23;12.40;99.90
52451;DHT22;38366;53.176;6.540;2022-12-31T16:31:51;12.40;99.90
52451;DHT22;38366;53.176;6.540;2022-12-31T16:34:25;12.40;99.90
52451;DHT22;38366;53.176;6.540;2022-12-31T16:37:00;12.50;99.90
52451;DHT22;38366;53.176;6.540;2022-12-31T16:39:34;12.50;99.90
52451;DHT22;38366;53.176;6.540;2022-12-31T16:44:39;12.50;99.90
52451;DHT22;38366;53.176;6.540;2022-12-31T16:47:06;12.40;99.90
52451;DHT22;38366;53.176;6.540;2022-12-31T16:49:36;12.50;99.90
52451;DHT22;38366;53.176;6.540;2022-12-31T16:52:05;12.50;99.90
52451;DHT22;38366;53.176;6.540;2022-12-31T16:54:38;12.50;99.90
52451;DHT22;38366;53.176;6.540;2022-12-31T16:57:05;12.50;99.90
52451;DHT22;38366;53.176;6.540;2022-12-31T17:07:48;12.50;99.90
52451;DHT22;38366;53.176;6.540;2022-12-31T17:14:27;12.70;99.90
52451;DHT22;38366;53.176;6.540;2022-12-31T17:19:43;12.70;99.90
52451;DHT22;38366;53.176;6.540;2022-12-31T17:22:25;12.70;99.90
52451;DHT22;38366;53.176;6.540;2022-12-31T17:24:58;12.80;99.90
52451;DHT22;38366;53.176;6.540;2022-12-31T17:27:25;12.90;99.90
52451;DHT22;38366;53.176;6.540;2022-12-31T17:29:51;12.90;99.90
52451;DHT22;38366;53.176;6.540;2022-12-31T17:32:35;13.00;99.90
52451;DHT22;38366;53.176;6.540;2022-12-31T17:35:01;13.00;99.90
52451;DHT22;38366;53.176;6.540;2022-12-31T17:37:29;13.10;99.90
52451;DHT22;38366;53.176;6.540;2022-12-31T17:39:56;13.10;99.90
52451;DHT22;38366;53.176;6.540;2022-12-31T17:42:36;13.10;99.90
52451;DHT22;38366;53.176;6.540;2022-12-31T17:45:08;13.10;99.90
52451;DHT22;38366;53.176;6.540;2022-12-31T17:47:45;13.00;99.90
52451;DHT22;38366;53.176;6.540;2022-12-31T17:50:24;13.00;99.90
52451;DHT22;38366;53.176;6.540;2022-12-31T17:52:56;13.00;99.90
52451;DHT22;38366;53.176;6.540;2022-12-31T17:55:22;13.10;99.90
52451;DHT22;38366;53.176;6.540;2022-12-31T17:57:51;13.10;99.90
52451;DHT22;38366;53.176;6.540;2022-12-31T18:00:20;13.10;99.90
52451;DHT22;38366;53.176;6.540;2022-12-31T18:02:50;13.10;99.90
52451;DHT22;38366;53.176;6.540;2022-12-31T18:05:17;13.10;99.90
52451;DHT22;38366;53.176;6.540;2022-12-31T18:07:44;13.10;99.90
52451;DHT22;38366;53.176;6.540;2022-12-31T18:10:11;13.70;99.90
52451;DHT22;38366;53.176;6.540;2022-12-31T18:12:38;13.20;99.90
52451;DHT22;38366;53.176;6.540;2022-12-31T18:15:04;13.10;99.90
52451;DHT22;38366;53.176;6.540;2022-12-31T18:17:30;13.10;99.90
52451;DHT22;38366;53.176;6.540;2022-12-31T18:19:58;13.10;99.90
52451;DHT22;38366;53.176;6.540;2022-12-31T18:22:23;13.10;99.90
52451;DHT22;38366;53.176;6.540;2022-12-31T18:24:51;13.10;99.90
52451;DHT22;38366;53.176;6.540;2022-12-31T18:27:19;13.10;99.90
52451;DHT22;38366;53.176;6.540;2022-12-31T18:29:45;13.10;99.90
52451;DHT22;38366;53.176;6.540;2022-12-31T18:32:23;13.20;99.90
52451;DHT22;38366;53.176;6.540;2022-12-31T18:34:50;13.20;99.90
52451;DHT22;38366;53.176;6.540;2022-12-31T18:37:17;13.30;99.90
52451;DHT22;38366;53.176;6.540;2022-12-31T18:39:43;13.40;99.90
52451;DHT22;38366;53.176;6.540;2022-12-31T18:42:13;13.30;99.90
52451;DHT22;38366;53.176;6.540;2022-12-31T18:44:40;13.30;99.90
52451;DHT22;38366;53.176;6.540;2022-12-31T18:47:12;13.30;99.90
52451;DHT22;38366;53.176;6.540;2022-12-31T18:49:40;13.40;99.90
52451;DHT22;38366;53.176;6.540;2022-12-31T18:52:16;13.30;99.90
52451;DHT22;38366;53.176;6.540;2022-12-31T18:54:42;13.30;99.90
52451;DHT22;38366;53.176;6.540;2022-12-31T18:57:10;13.30;99.90
52451;DHT22;38366;53.176;6.540;2022-12-31T18:59:36;13.40;99.90
52451;DHT22;38366;53.176;6.540;2022-12-31T19:02:02;13.40;99.90
52451;DHT22;38366;53.176;6.540;2022-12-31T19:04:28;13.40;99.90
52451;DHT22;38366;53.176;6.540;2022-12-31T19:06:55;13.30;99.90
52451;DHT22;38366;53.176;6.540;2022-12-31T19:09:21;13.30;99.90
52451;DHT22;38366;53.176;6.540;2022-12-31T19:11:46;13.30;99.90
52451;DHT22;38366;53.176;6.540;2022-12-31T19:14:15;13.40;99.90
52451;DHT22;38366;53.176;6.540;2022-12-31T19:16:46;13.40;99.90
52451;DHT22;38366;53.176;6.540;2022-12-31T19:19:12;13.40;99.90
52451;DHT22;38366;53.176;6.540;2022-12-31T19:21:38;13.40;99.90
52451;DHT22;38366;53.176;6.540;2022-12-31T19:24:20;13.50;99.90
52451;DHT22;38366;53.176;6.540;2022-12-31T19:26:47;13.50;99.90
52451;DHT22;38366;53.176;6.540;2022-12-31T19:29:21;13.50;99.90
52451;DHT22;38366;53.176;6.540;2022-12-31T19:31:47;13.60;99.90
52451;DHT22;38366;53.176;6.540;2022-12-31T19:34:13;13.60;99.90
52451;DHT22;38366;53.176;6.540;2022-12-31T19:36:40;13.60;99.90
52451;DHT22;38366;53.176;6.540;2022-12-31T19:39:06;13.70;99.90
52451;DHT22;38366;53.176;6.540;2022-12-31T19:41:34;13.70;99.90
52451;DHT22;38366;53.176;6.540;2022-12-31T19:44:00;13.70;99.90
52451;DHT22;38366;53.176;6.540;2022-12-31T19:46:26;13.70;99.90
52451;DHT22;38366;53.176;6.540;2022-12-31T19:48:52;13.70;99.90
52451;DHT22;38366;53.176;6.540;2022-12-31T19:51:20;13.70;99.90
52451;DHT22;38366;53.176;6.540;2022-12-31T19:53:47;13.70;99.90
52451;DHT22;38366;53.176;6.540;2022-12-31T19:56:50;13.80;99.90
52451;DHT22;38366;53.176;6.540;2022-12-31T20:07:32;13.90;99.90
52451;DHT22;38366;53.176;6.540;2022-12-31T20:10:08;13.90;99.90
52451;DHT22;38366;53.176;6.540;2022-12-31T20:13:17;14.00;99.90
52451;DHT22;38366;53.176;6.540;2022-12-31T20:15:44;13.90;99.90
52451;DHT22;38366;53.176;6.540;2022-12-31T20:18:12;14.00;99.90
52451;DHT22;38366;53.176;6.540;2022-12-31T20:20:38;14.10;99.90
52451;DHT22;38366;53.176;6.540;2022-12-31T20:23:03;14.10;99.90
52451;DHT22;38366;53.176;6.540;2022-12-31T20:25:29;14.00;99.90
52451;DHT22;38366;53.176;6.540;2022-12-31T20:27:55;14.00;99.90